Time;durP1;ratioP1;P1;durP2;ratioP2;P2;SDS_P1;SDS_P2;PMS_P1;PMS_P2;Temp;Humidity;BMP_temperature;BMP_pressure;BME280_temperature;BME280_humidity;BME280_pressure;Samples;Min_cycle;Max_cycle;Signal;HPM_P1;HPM_P2
2021/04/19 00:01:27;;;;;;;12.70;9.30;;;11.20;65.90;;;;;;4937908;29;20465;-77
2021/04/19 00:03:52;;;;;;;11.70;8.60;;;11.20;66.20;;;;;;4920737;29;20433;-80
2021/04/19 00:06:18;;;;;;;14.37;9.17;;;11.20;66.80;;;;;;4939461;29;20405;-78
2021/04/19 00:08:44;;;;;;;13.83;9.23;;;11.10;67.10;;;;;;4940464;29;20189;-77
2021/04/19 00:11:10;;;;;;;13.03;9.23;;;11.10;67.70;;;;;;4947882;29;20220;-78
2021/04/19 00:13:36;;;;;;;11.80;9.10;;;11.10;68.00;;;;;;4953698;29;20927;-78
2021/04/19 00:16:02;;;;;;;16.83;9.90;;;11.00;68.70;;;;;;4944402;29;20205;-79
2021/04/19 00:18:28;;;;;;;16.10;9.33;;;11.00;68.80;;;;;;4953935;29;20169;-78
2021/04/19 00:20:53;;;;;;;18.17;10.10;;;10.90;68.90;;;;;;4943794;29;20425;-78
2021/04/19 00:23:19;;;;;;;13.50;9.37;;;10.90;69.00;;;;;;4925273;29;20426;-79
2021/04/19 00:25:45;;;;;;;13.13;9.23;;;10.90;69.40;;;;;;4941727;29;20209;-78
2021/04/19 00:28:11;;;;;;;16.57;9.63;;;10.90;69.70;;;;;;4947928;29;20185;-78
2021/04/19 00:30:36;;;;;;;15.43;10.37;;;10.90;69.80;;;;;;4947107;29;20265;-78
2021/04/19 00:33:02;;;;;;;17.20;9.50;;;10.80;70.20;;;;;;4941420;29;20173;-78
2021/04/19 00:35:28;;;;;;;17.30;10.90;;;10.70;70.60;;;;;;4921530;29;20182;-78
2021/04/19 00:37:54;;;;;;;13.97;8.77;;;10.70;71.00;;;;;;4937379;29;20919;-79
2021/04/19 00:40:21;;;;;;;12.63;8.70;;;10.60;71.20;;;;;;4922356;29;20233;-79
2021/04/19 00:42:50;;;;;;;13.80;10.03;;;10.60;71.70;;;;;;4932247;29;20425;-77
2021/04/19 00:45:17;;;;;;;15.30;8.83;;;10.50;72.40;;;;;;4965220;29;21020;-77
2021/04/19 00:47:46;;;;;;;16.70;10.10;;;10.50;73.00;;;;;;4961146;29;20437;-78
2021/04/19 00:50:15;;;;;;;17.50;9.50;;;10.40;73.30;;;;;;4937943;29;20455;-80
2021/04/19 00:52:41;;;;;;;15.37;10.13;;;10.40;73.60;;;;;;4937655;29;20409;-78
2021/04/19 00:55:10;;;;;;;15.90;9.53;;;10.30;73.60;;;;;;4935980;29;20493;-79
2021/04/19 00:57:36;;;;;;;19.40;10.93;;;10.30;73.80;;;;;;4918346;29;20446;-77
2021/04/19 01:00:10;;;;;;;17.43;10.77;;;10.30;74.10;;;;;;4918666;29;20418;-80
2021/04/19 01:02:39;;;;;;;15.60;10.73;;;10.30;74.20;;;;;;4936930;29;20537;-77
2021/04/19 01:05:22;;;;;;;13.77;8.93;;;10.30;74.10;;;;;;4935668;29;20458;-77
2021/04/19 01:07:52;;;;;;;15.50;9.93;;;10.30;73.90;;;;;;4904901;29;20489;-79
2021/04/19 01:10:19;;;;;;;17.87;10.30;;;10.20;74.00;;;;;;4905302;29;20461;-79
2021/04/19 01:12:45;;;;;;;15.10;10.40;;;10.20;74.10;;;;;;4917591;29;20947;-78
2021/04/19 01:15:16;;;;;;;13.63;9.23;;;10.20;73.90;;;;;;4904140;29;20435;-80
2021/04/19 01:17:43;;;;;;;15.57;10.23;;;10.20;74.10;;;;;;4927121;29;20445;-77
2021/04/19 01:20:11;;;;;;;14.27;10.07;;;10.20;74.20;;;;;;4941296;29;20413;-78
2021/04/19 01:22:38;;;;;;;13.23;9.33;;;10.20;74.10;;;;;;4924883;29;20468;-78
2021/04/19 01:25:12;;;;;;;16.07;9.63;;;10.20;74.20;;;;;;4937480;29;20456;-78
2021/04/19 01:27:38;;;;;;;11.93;9.33;;;10.10;74.00;;;;;;4940210;29;20480;-80
2021/04/19 01:30:06;;;;;;;17.17;9.97;;;10.10;74.00;;;;;;4954848;29;20418;-79
2021/04/19 01:32:32;;;;;;;18.10;10.17;;;10.10;74.20;;;;;;4940673;29;20413;-79
2021/04/19 01:34:58;;;;;;;12.80;8.23;;;10.00;74.00;;;;;;4939224;29;20426;-78
2021/04/19 01:37:24;;;;;;;16.23;11.67;;;10.00;74.00;;;;;;4954447;29;20162;-79
2021/04/19 01:39:51;;;;;;;15.97;9.10;;;10.00;73.90;;;;;;4939251;29;20449;-77
2021/04/19 01:42:16;;;;;;;18.57;10.03;;;9.90;75.10;;;;;;4921871;29;20429;-78
2021/04/19 01:44:43;;;;;;;13.43;9.00;;;9.90;76.00;;;;;;4939380;29;20197;-78
2021/04/19 01:47:09;;;;;;;15.90;8.10;;;9.90;75.10;;;;;;4920444;29;20765;-78
2021/04/19 01:49:38;;;;;;;12.07;8.00;;;9.90;75.10;;;;;;4939636;29;20417;-77
2021/04/19 01:52:05;;;;;;;13.30;8.87;;;9.90;75.20;;;;;;4924101;29;20479;-78
2021/04/19 01:54:31;;;;;;;14.90;8.20;;;9.80;75.10;;;;;;4923695;29;20908;-78
2021/04/19 01:56:57;;;;;;;17.40;8.50;;;9.80;75.10;;;;;;4940489;29;20445;-77
2021/04/19 01:59:25;;;;;;;12.83;8.70;;;9.80;75.10;;;;;;4923619;29;20169;-79
2021/04/19 02:02:04;;;;;;;15.40;8.87;;;9.80;75.00;;;;;;4922430;29;20573;-78
2021/04/19 02:04:53;;;;;;;11.87;7.60;;;9.80;74.90;;;;;;4924335;29;20867;-79
2021/04/19 02:07:32;;;;;;;16.90;7.80;;;9.80;75.00;;;;;;4925943;29;20504;-77
2021/04/19 02:10:34;;;;;;;12.23;7.90;;;9.80;74.80;;;;;;4917316;29;20388;-78
2021/04/19 02:13:14;;;;;;;10.50;7.00;;;9.80;74.70;;;;;;4922969;29;20436;-78
2021/04/19 02:16:13;;;;;;;14.00;8.83;;;9.80;74.50;;;;;;4924191;29;20425;-78
2021/04/19 02:18:54;;;;;;;15.40;9.60;;;9.70;74.30;;;;;;4905179;29;20426;-77
2021/04/19 02:21:28;;;;;;;18.27;9.27;;;9.70;74.40;;;;;;4908609;29;20410;-78
2021/04/19 02:24:02;;;;;;;16.00;8.07;;;9.60;74.40;;;;;;4928746;29;20500;-77
2021/04/19 02:26:36;;;;;;;13.73;8.07;;;9.60;74.70;;;;;;4943443;29;20433;-78
2021/04/19 02:29:16;;;;;;;14.37;8.27;;;9.50;74.70;;;;;;4941268;29;20508;-78
2021/04/19 02:32:00;;;;;;;13.67;8.43;;;9.50;74.90;;;;;;4917469;29;20465;-78
2021/04/19 02:34:38;;;;;;;13.80;8.20;;;9.50;75.00;;;;;;4911212;29;20437;-78
2021/04/19 02:37:05;;;;;;;13.37;7.70;;;9.50;74.80;;;;;;4904583;29;20414;-78
2021/04/19 02:39:39;;;;;;;12.03;7.50;;;9.40;74.60;;;;;;4905505;29;20836;-80
2021/04/19 02:42:07;;;;;;;11.83;7.67;;;9.40;74.70;;;;;;4910175;29;20575;-77
2021/04/19 02:44:39;;;;;;;13.13;6.73;;;9.30;74.60;;;;;;4912635;29;21030;-77
2021/04/19 02:47:27;;;;;;;12.83;6.70;;;9.40;74.80;;;;;;4907035;29;20427;-78
2021/04/19 02:50:14;;;;;;;13.23;8.10;;;9.40;74.60;;;;;;4907792;29;20502;-77
2021/04/19 02:52:42;;;;;;;11.13;7.40;;;9.40;74.40;;;;;;4916647;29;20815;-78
2021/04/19 02:55:13;;;;;;;13.07;7.20;;;9.40;74.20;;;;;;4942641;29;20698;-78
2021/04/19 02:57:48;;;;;;;10.33;7.07;;;9.40;74.10;;;;;;4958783;29;20945;-78
2021/04/19 03:00:23;;;;;;;8.60;6.10;;;9.40;74.20;;;;;;4941364;29;20444;-79
2021/04/19 03:02:54;;;;;;;14.53;6.87;;;9.40;73.70;;;;;;4908426;29;20425;-78
2021/04/19 03:05:30;;;;;;;12.70;7.63;;;9.40;73.60;;;;;;4944698;29;20461;-78
2021/04/19 03:08:05;;;;;;;12.13;7.13;;;9.40;73.50;;;;;;4921735;29;20432;-78
2021/04/19 03:10:37;;;;;;;8.30;6.70;;;9.40;72.80;;;;;;4922478;29;20472;-78
2021/04/19 03:13:08;;;;;;;12.97;7.90;;;9.40;72.90;;;;;;4945784;29;20847;-77
2021/04/19 03:15:39;;;;;;;11.10;7.57;;;9.40;72.90;;;;;;4948658;29;20478;-79
2021/04/19 03:18:19;;;;;;;9.67;6.60;;;9.30;72.50;;;;;;4942325;29;20414;-78
2021/04/19 03:21:14;;;;;;;9.47;6.80;;;9.30;72.30;;;;;;4937161;29;20432;-77
2021/04/19 03:23:59;;;;;;;9.53;6.10;;;9.30;72.20;;;;;;4907300;29;20959;-78
2021/04/19 03:26:42;;;;;;;11.30;7.10;;;9.30;72.10;;;;;;4884562;29;685625;-78
2021/04/19 03:29:10;;;;;;;10.17;5.73;;;9.30;71.80;;;;;;4907873;29;20457;-79
2021/04/19 03:31:55;;;;;;;18.70;6.63;;;9.20;71.80;;;;;;4913504;29;20536;-77
2021/04/19 03:34:31;;;;;;;12.60;6.97;;;9.20;72.10;;;;;;4922371;29;20433;-78
2021/04/19 03:37:04;;;;;;;13.00;6.50;;;9.20;71.80;;;;;;4907824;29;20433;-78
2021/04/19 03:39:34;;;;;;;14.90;6.70;;;9.20;72.00;;;;;;4928031;29;20508;-78
2021/04/19 03:42:05;;;;;;;8.23;5.97;;;9.20;72.70;;;;;;4926331;29;20418;-78
2021/04/19 03:44:40;;;;;;;10.77;7.07;;;9.20;71.70;;;;;;4924068;29;20465;-77
2021/04/19 03:47:16;;;;;;;12.03;6.17;;;9.20;72.10;;;;;;4923683;29;20437;-78
2021/04/19 03:50:02;;;;;;;12.30;6.50;;;9.20;72.50;;;;;;4909411;29;20433;-78
2021/04/19 03:52:39;;;;;;;8.93;6.60;;;9.20;72.80;;;;;;4923287;29;20437;-77
2021/04/19 03:55:14;;;;;;;12.33;6.57;;;9.20;72.90;;;;;;4907537;29;20453;-77
2021/04/19 03:57:49;;;;;;;9.07;6.40;;;9.10;73.00;;;;;;4906588;29;20475;-77
2021/04/19 04:00:27;;;;;;;10.70;6.33;;;9.10;73.00;;;;;;4914529;29;20499;-79
2021/04/19 04:03:19;;;;;;;13.90;6.40;;;9.10;73.40;;;;;;4909105;29;20421;-78
2021/04/19 04:06:25;;;;;;;11.43;6.97;;;9.10;73.60;;;;;;4941009;29;20449;-79
2021/04/19 04:08:56;;;;;;;11.13;7.03;;;9.10;74.10;;;;;;4944413;29;20432;-78
2021/04/19 04:11:23;;;;;;;11.00;6.93;;;9.10;74.90;;;;;;4910968;29;20456;-79
2021/04/19 04:14:11;;;;;;;11.37;6.60;;;9.10;75.20;;;;;;4928126;29;20444;-78
2021/04/19 04:16:52;;;;;;;10.67;6.60;;;9.10;75.60;;;;;;4936362;29;20417;-78
2021/04/19 04:19:32;;;;;;;13.80;7.20;;;9.00;76.10;;;;;;4907691;29;20466;-78
2021/04/19 04:22:08;;;;;;;11.40;7.70;;;9.00;76.90;;;;;;4918891;29;20561;-77
2021/04/19 04:24:47;;;;;;;10.00;7.37;;;8.90;77.30;;;;;;4908787;29;20536;-77
2021/04/19 04:27:16;;;;;;;10.70;7.50;;;8.80;77.70;;;;;;4938274;29;20819;-78
2021/04/19 04:29:42;;;;;;;11.90;7.60;;;8.70;78.10;;;;;;4908031;29;20501;-78
2021/04/19 04:32:24;;;;;;;15.60;9.37;;;8.70;78.70;;;;;;4926806;29;20421;-77
2021/04/19 04:35:00;;;;;;;10.17;7.47;;;8.70;79.50;;;;;;4945505;29;20429;-78
2021/04/19 04:37:26;;;;;;;13.33;7.40;;;8.60;79.60;;;;;;4928922;29;20414;-78
2021/04/19 04:40:15;;;;;;;11.83;8.77;;;8.60;79.90;;;;;;4923040;29;20413;-79
2021/04/19 04:42:48;;;;;;;12.30;7.47;;;8.60;80.60;;;;;;4922045;29;20401;-78
2021/04/19 04:45:26;;;;;;;15.50;8.63;;;8.60;80.50;;;;;;4910154;29;20446;-78
2021/04/19 04:48:15;;;;;;;13.93;8.00;;;8.50;80.50;;;;;;4913130;29;20429;-77
2021/04/19 04:50:48;;;;;;;8.70;7.77;;;8.50;80.80;;;;;;4916451;29;20457;-78
2021/04/19 04:53:22;;;;;;;12.40;7.60;;;8.50;81.20;;;;;;4923344;28;20449;-78
2021/04/19 04:55:52;;;;;;;13.00;7.67;;;8.50;81.30;;;;;;4903738;29;20477;-78
2021/04/19 04:58:31;;;;;;;12.30;7.70;;;8.50;81.50;;;;;;4895382;29;20509;-78
2021/04/19 05:01:10;;;;;;;17.70;8.33;;;8.50;81.70;;;;;;4922262;29;20431;-80
2021/04/19 05:03:47;;;;;;;12.30;8.30;;;8.50;82.70;;;;;;4929587;29;20477;-78
2021/04/19 05:06:16;;;;;;;15.20;9.60;;;8.50;81.70;;;;;;4912060;29;20803;-78
2021/04/19 05:08:42;;;;;;;14.70;8.50;;;8.50;81.90;;;;;;4934677;29;20410;-77
2021/04/19 05:11:12;;;;;;;14.13;8.93;;;8.40;82.30;;;;;;4934377;29;20480;-78
2021/04/19 05:13:44;;;;;;;17.87;10.63;;;8.40;82.70;;;;;;4915182;29;20428;-79
2021/04/19 05:16:10;;;;;;;11.63;8.10;;;8.50;83.10;;;;;;4930209;29;20501;-78
2021/04/19 05:18:36;;;;;;;19.90;9.90;;;8.50;83.30;;;;;;4916242;29;20425;-78
2021/04/19 05:21:02;;;;;;;13.60;10.87;;;8.50;83.80;;;;;;4949320;29;20433;-77
2021/04/19 05:23:31;;;;;;;11.03;8.00;;;8.50;84.00;;;;;;4945820;29;20174;-77
2021/04/19 05:25:56;;;;;;;19.13;8.93;;;8.40;84.20;;;;;;4926077;29;20477;-79
2021/04/19 05:28:36;;;;;;;15.10;8.07;;;8.40;84.50;;;;;;4950267;29;20424;-79
2021/04/19 05:31:02;;;;;;;15.67;8.27;;;8.40;84.80;;;;;;4918986;29;20512;-79
2021/04/19 05:33:28;;;;;;;16.10;9.17;;;8.40;84.90;;;;;;4951104;29;20940;-79
2021/04/19 05:35:54;;;;;;;13.53;9.43;;;8.40;85.20;;;;;;4962898;29;20445;-78
2021/04/19 05:38:41;;;;;;;16.07;8.90;;;8.40;85.20;;;;;;4929280;29;20170;-78
2021/04/19 05:41:14;;;;;;;16.43;9.33;;;8.40;85.40;;;;;;4941837;29;20461;-78
2021/04/19 05:43:45;;;;;;;16.40;9.23;;;8.40;85.80;;;;;;4940738;29;20513;-77
2021/04/19 05:46:24;;;;;;;17.87;8.90;;;8.40;85.90;;;;;;4914687;29;20429;-79
2021/04/19 05:48:49;;;;;;;21.10;9.47;;;8.40;86.10;;;;;;4930260;29;20521;-79
2021/04/19 05:51:39;;;;;;;19.80;11.30;;;8.50;86.20;;;;;;4911745;29;20493;-79
2021/04/19 05:54:05;;;;;;;15.90;10.40;;;8.50;87.20;;;;;;4920860;29;20222;-78
2021/04/19 05:56:36;;;;;;;19.70;10.00;;;8.50;86.60;;;;;;4919724;29;20422;-79
2021/04/19 05:59:19;;;;;;;19.43;10.60;;;8.50;86.90;;;;;;4925198;29;20438;-80
2021/04/19 06:01:50;;;;;;;16.83;10.50;;;8.50;86.60;;;;;;4940461;29;20468;-79
2021/04/19 06:05:07;;;;;;;22.90;11.13;;;8.40;86.80;;;;;;4919054;29;20441;-79
2021/04/19 06:08:15;;;;;;;16.03;10.70;;;8.40;87.20;;;;;;4951039;29;20436;-81
2021/04/19 06:10:56;;;;;;;23.63;10.57;;;8.40;87.40;;;;;;4953313;29;20516;-80
2021/04/19 06:13:49;;;;;;;16.40;10.97;;;8.40;87.70;;;;;;4934609;29;20426;-80
2021/04/19 06:16:27;;;;;;;16.10;10.80;;;8.50;87.80;;;;;;4916380;29;20430;-82
2021/04/19 06:19:13;;;;;;;20.70;11.90;;;8.50;87.80;;;;;;4917317;29;20426;-80
2021/04/19 06:22:16;;;;;;;20.27;11.90;;;8.50;87.90;;;;;;4916251;29;20430;-79
2021/04/19 06:25:30;;;;;;;20.00;11.90;;;8.60;87.90;;;;;;4947191;23;20477;-79
2021/04/19 06:28:41;;;;;;;20.77;11.70;;;8.60;87.90;;;;;;4948142;29;20527;-80
2021/04/19 06:31:29;;;;;;;25.33;14.07;;;8.50;87.70;;;;;;4914331;29;20616;-80
2021/04/19 06:34:11;;;;;;;19.90;11.43;;;8.60;88.10;;;;;;4922745;29;20414;-79
2021/04/19 06:36:46;;;;;;;23.07;12.57;;;8.60;88.40;;;;;;4940723;29;20456;-80
2021/04/19 06:39:32;;;;;;;17.90;12.70;;;8.60;88.30;;;;;;4932488;29;20445;-81
2021/04/19 06:42:17;;;;;;;26.03;13.07;;;8.60;88.20;;;;;;4928853;29;20434;-80
2021/04/19 06:44:54;;;;;;;21.83;14.43;;;8.70;88.40;;;;;;4946459;29;20521;-80
2021/04/19 06:47:24;;;;;;;21.40;13.53;;;8.70;88.40;;;;;;4961785;29;20416;-79
2021/04/19 06:49:58;;;;;;;23.87;14.43;;;8.70;88.30;;;;;;4943893;29;20414;-79
2021/04/19 06:52:27;;;;;;;21.73;15.57;;;8.70;88.30;;;;;;4944314;29;20475;-79
2021/04/19 06:54:54;;;;;;;24.67;15.63;;;8.70;89.30;;;;;;4967564;28;20437;-81
2021/04/19 06:57:27;;;;;;;30.80;16.50;;;8.60;88.70;;;;;;4962081;29;20173;-79
2021/04/19 06:59:56;;;;;;;29.37;15.70;;;8.60;88.80;;;;;;4961382;28;20451;-80
2021/04/19 07:02:39;;;;;;;30.70;16.40;;;8.60;89.20;;;;;;4939423;29;20960;-80
2021/04/19 07:05:05;;;;;;;28.47;17.77;;;8.70;90.00;;;;;;4951450;29;21014;-81
2021/04/19 07:08:02;;;;;;;27.30;18.37;;;8.70;89.30;;;;;;4953126;29;20456;-78
2021/04/19 07:10:42;;;;;;;26.73;17.40;;;8.70;89.40;;;;;;4953364;28;20459;-76
2021/04/19 07:13:12;;;;;;;33.47;17.37;;;8.80;89.50;;;;;;4956896;29;20445;-78
2021/04/19 07:15:48;;;;;;;25.80;17.00;;;8.90;89.10;;;;;;4940656;29;20468;-80
2021/04/19 07:18:20;;;;;;;26.63;17.90;;;9.00;89.40;;;;;;4951574;28;20531;-79
2021/04/19 07:20:55;;;;;;;27.10;16.70;;;9.10;89.00;;;;;;4959048;28;20443;-81
2021/04/19 07:23:36;;;;;;;28.87;17.07;;;9.20;88.20;;;;;;4935296;29;20444;-79
2021/04/19 07:26:06;;;;;;;29.57;17.80;;;9.20;88.40;;;;;;4973133;28;20467;-80
2021/04/19 07:28:37;;;;;;;23.57;17.20;;;9.20;88.20;;;;;;4955864;29;20571;-79
2021/04/19 07:31:48;;;;;;;30.30;18.17;;;9.30;88.10;;;;;;4947535;29;20560;-78
2021/04/19 07:34:32;;;;;;;34.17;20.60;;;9.30;88.70;;;;;;4963170;28;20454;-79
2021/04/19 07:37:17;;;;;;;34.97;19.47;;;9.30;87.90;;;;;;4956178;29;20432;-78
2021/04/19 07:40:00;;;;;;;29.33;17.30;;;9.40;88.30;;;;;;4935668;29;20419;-79
2021/04/19 07:42:29;;;;;;;37.30;22.60;;;9.40;87.90;;;;;;4949419;28;20433;-77
2021/04/19 07:44:58;;;;;;;34.40;21.60;;;9.50;87.60;;;;;;4941206;29;20444;-78
2021/04/19 07:47:41;;;;;;;29.83;20.50;;;9.60;87.90;;;;;;4938307;29;20421;-80
2021/04/19 07:50:22;;;;;;;27.33;19.40;;;9.60;87.10;;;;;;4951381;29;20405;-77
2021/04/19 07:52:53;;;;;;;30.40;19.47;;;9.60;87.50;;;;;;4955592;29;20830;-79
2021/04/19 07:55:52;;;;;;;27.47;18.67;;;9.60;87.10;;;;;;4949951;29;20454;-81
2021/04/19 07:58:57;;;;;;;31.40;20.63;;;9.50;87.60;;;;;;4977006;28;20827;-80
2021/04/19 08:01:29;;;;;;;34.93;20.10;;;9.50;87.50;;;;;;4933990;29;20439;-78
2021/04/19 08:04:21;;;;;;;37.10;20.17;;;9.40;87.40;;;;;;4947556;28;20428;-79
2021/04/19 08:06:50;;;;;;;28.93;18.70;;;9.40;88.10;;;;;;4950279;29;20926;-79
2021/04/19 08:10:02;;;;;;;26.23;18.57;;;9.30;87.70;;;;;;4953082;29;20428;-78
2021/04/19 08:12:45;;;;;;;31.53;20.57;;;9.30;87.80;;;;;;4956072;28;20457;-78
2021/04/19 08:19:13;;;;;;;31.47;19.90;;;9.40;88.30;;;;;;4954864;29;20520;-78
2021/04/19 08:22:23;;;;;;;30.30;20.07;;;9.40;87.00;;;;;;4945470;29;20430;-79
2021/04/19 08:25:39;;;;;;;33.80;20.80;;;9.40;86.00;;;;;;4941078;29;20803;-78
2021/04/19 08:28:21;;;;;;;30.93;20.90;;;9.30;86.60;;;;;;4954976;29;20440;-79
2021/04/19 08:30:52;;;;;;;32.73;22.17;;;9.20;86.20;;;;;;4936150;29;21311;-78
2021/04/19 08:33:33;;;;;;;35.33;22.03;;;9.20;86.30;;;;;;4948198;29;20419;-77
2021/04/19 08:36:09;;;;;;;31.23;20.57;;;9.10;86.70;;;;;;4956778;29;20444;-79
2021/04/19 08:38:35;;;;;;;30.97;19.90;;;9.10;86.80;;;;;;4964232;29;20405;-79
2021/04/19 08:41:01;;;;;;;37.33;20.33;;;9.00;86.90;;;;;;4961464;29;20460;-78
2021/04/19 08:46:11;;;;;;;31.20;18.47;;;9.10;87.10;;;;;;4887396;29;20913;-77
2021/04/19 08:48:37;;;;;;;31.17;19.83;;;9.20;87.60;;;;;;4885625;29;20405;-78
2021/04/19 08:51:07;;;;;;;27.57;18.70;;;9.20;86.30;;;;;;4867328;29;20473;-80
2021/04/19 08:53:32;;;;;;;27.80;19.13;;;9.30;86.30;;;;;;4882914;29;20425;-77
2021/04/19 08:55:59;;;;;;;26.20;18.33;;;9.40;85.30;;;;;;4866909;29;20439;-78
2021/04/19 08:58:26;;;;;;;34.13;21.27;;;9.40;85.40;;;;;;4869859;29;20185;-76
2021/04/19 09:00:53;;;;;;;33.53;20.57;;;9.50;85.30;;;;;;4869205;29;20567;-79
2021/04/19 09:03:21;;;;;;;31.43;21.07;;;9.60;84.60;;;;;;4867123;29;20524;-80
2021/04/19 09:05:50;;;;;;;27.27;18.20;;;9.70;84.40;;;;;;4881415;29;21267;-78
2021/04/19 09:08:18;;;;;;;27.07;19.40;;;9.80;84.90;;;;;;4866296;29;20836;-77
2021/04/19 09:10:59;;;;;;;28.17;19.30;;;9.90;84.20;;;;;;4867303;29;20581;-79
2021/04/19 09:13:26;;;;;;;31.77;20.70;;;9.90;83.70;;;;;;4864533;29;20425;-77
2021/04/19 09:15:53;;;;;;;29.80;20.07;;;9.90;84.10;;;;;;4882363;29;20429;-78
2021/04/19 09:18:21;;;;;;;30.10;20.87;;;10.00;82.70;;;;;;4851092;29;20456;-80
2021/04/19 09:20:50;;;;;;;35.67;20.47;;;10.00;82.40;;;;;;4854614;29;20500;-77
2021/04/19 09:23:25;;;;;;;32.77;20.30;;;10.00;81.60;;;;;;4884071;29;20433;-79
2021/04/19 09:25:52;;;;;;;31.97;21.00;;;10.20;82.10;;;;;;4865004;29;20424;-75
2021/04/19 09:28:47;;;;;;;29.43;20.60;;;10.30;81.20;;;;;;4860407;29;20441;-77
2021/04/19 09:31:13;;;;;;;26.93;19.33;;;10.40;80.90;;;;;;4865191;29;20465;-78
2021/04/19 09:33:40;;;;;;;26.40;18.20;;;10.60;81.70;;;;;;4877396;29;20405;-77
2021/04/19 09:36:07;;;;;;;26.50;20.07;;;10.60;79.10;;;;;;4895489;29;20417;-80
2021/04/19 09:38:40;;;;;;;29.10;19.60;;;10.60;79.20;;;;;;4864153;29;20714;-76
2021/04/19 09:41:13;;;;;;;26.50;17.77;;;10.60;78.90;;;;;;4888104;29;20539;-78
2021/04/19 09:43:41;;;;;;;31.27;21.83;;;10.60;80.60;;;;;;4871957;29;20508;-77
2021/04/19 09:46:19;;;;;;;34.03;20.83;;;10.50;77.70;;;;;;4867656;29;20582;-80
2021/04/19 09:48:47;;;;;;;37.27;20.97;;;10.50;79.20;;;;;;4870868;29;20478;-81
2021/04/19 09:51:16;;;;;;;28.00;20.10;;;10.50;80.30;;;;;;4887070;29;20556;-78
2021/04/19 09:53:46;;;;;;;35.73;20.23;;;10.50;79.60;;;;;;4854750;29;20437;-79
2021/04/19 09:56:12;;;;;;;31.53;21.90;;;10.50;79.60;;;;;;4870275;29;20500;-78
2021/04/19 09:58:41;;;;;;;35.67;20.20;;;10.60;80.20;;;;;;4870623;29;20519;-77
2021/04/19 10:01:08;;;;;;;31.83;20.33;;;10.60;79.00;;;;;;4889476;29;20446;-77
2021/04/19 10:03:34;;;;;;;32.43;20.83;;;10.60;78.30;;;;;;4872608;29;20429;-79
2021/04/19 10:06:04;;;;;;;33.73;21.20;;;10.60;78.90;;;;;;4884905;29;20523;-78
2021/04/19 10:08:34;;;;;;;38.90;23.80;;;10.60;78.80;;;;;;4877191;29;20501;-78
2021/04/19 10:11:03;;;;;;;35.87;24.70;;;10.70;80.20;;;;;;4868772;29;20480;-80
2021/04/19 10:13:37;;;;;;;36.13;23.07;;;10.90;79.70;;;;;;4872746;29;20931;-80
2021/04/19 10:16:11;;;;;;;39.43;24.60;;;11.10;78.80;;;;;;4872280;29;20427;-78
2021/04/19 10:18:40;;;;;;;35.80;23.97;;;11.30;77.80;;;;;;4866043;29;20430;-79
2021/04/19 10:21:08;;;;;;;39.90;24.20;;;11.50;77.80;;;;;;4886346;29;20446;-79
2021/04/19 10:23:41;;;;;;;30.93;23.00;;;11.80;76.10;;;;;;4874854;29;20409;-77
2021/04/19 10:26:09;;;;;;;28.00;20.90;;;12.10;74.60;;;;;;4865119;29;20433;-78
2021/04/19 10:28:36;;;;;;;29.40;19.50;;;12.60;75.30;;;;;;4856100;29;20429;-78
2021/04/19 10:31:15;;;;;;;29.10;19.67;;;12.90;71.60;;;;;;4867174;29;20473;-78
2021/04/19 10:33:43;;;;;;;30.43;21.10;;;13.10;70.50;;;;;;4871284;29;20440;-77
2021/04/19 10:36:10;;;;;;;32.37;20.53;;;13.20;69.00;;;;;;4881343;29;20437;-79
2021/04/19 10:38:36;;;;;;;32.50;21.13;;;13.40;69.60;;;;;;4867277;29;20432;-78
2021/04/19 10:41:03;;;;;;;30.57;21.47;;;13.70;68.60;;;;;;4867273;29;20457;-78
2021/04/19 10:43:28;;;;;;;29.67;21.77;;;14.00;65.40;;;;;;4869125;29;20425;-79
2021/04/19 10:45:54;;;;;;;31.00;22.30;;;14.00;66.30;;;;;;4866403;29;20493;-79
2021/04/19 10:48:25;;;;;;;36.60;23.50;;;14.20;65.60;;;;;;4867191;29;20214;-79
2021/04/19 10:50:57;;;;;;;31.90;22.40;;;14.20;65.80;;;;;;4863817;29;20209;-76
2021/04/19 10:53:32;;;;;;;28.97;19.83;;;14.50;64.70;;;;;;4860814;29;20544;-80
2021/04/19 10:56:01;;;;;;;28.13;19.47;;;14.80;64.30;;;;;;4865499;29;20578;-78
2021/04/19 10:58:30;;;;;;;29.73;19.50;;;14.90;60.90;;;;;;4862066;29;20440;-77
2021/04/19 11:00:57;;;;;;;26.23;18.97;;;15.00;60.10;;;;;;4866510;29;20465;-77
2021/04/19 11:03:23;;;;;;;30.60;21.10;;;14.80;59.30;;;;;;4866303;29;20433;-76
2021/04/19 11:05:49;;;;;;;33.37;20.40;;;14.40;59.70;;;;;;4868322;29;20420;-77
2021/04/19 11:08:15;;;;;;;23.13;18.00;;;14.30;62.90;;;;;;4868433;29;20492;-78
2021/04/19 11:10:41;;;;;;;25.10;17.90;;;14.10;61.10;;;;;;4866903;29;20515;-79
2021/04/19 11:13:09;;;;;;;24.20;17.57;;;13.90;61.70;;;;;;4843048;29;20437;-77
2021/04/19 11:15:38;;;;;;;22.17;16.03;;;13.90;63.60;;;;;;4871811;29;20157;-76
2021/04/19 11:18:22;;;;;;;27.20;19.30;;;14.10;62.60;;;;;;4863758;29;20437;-78
2021/04/19 11:20:53;;;;;;;24.77;17.27;;;14.30;61.40;;;;;;4871415;29;20543;-79
2021/04/19 11:23:37;;;;;;;27.87;17.77;;;14.50;61.00;;;;;;4867400;29;20817;-79
2021/04/19 11:26:11;;;;;;;27.33;18.17;;;14.60;60.90;;;;;;4863912;29;20907;-79
2021/04/19 11:28:44;;;;;;;28.17;17.03;;;14.50;59.10;;;;;;4863661;29;20441;-78
2021/04/19 11:31:21;;;;;;;29.03;16.60;;;14.50;59.30;;;;;;4860444;29;20497;-77
2021/04/19 11:33:50;;;;;;;27.77;18.87;;;14.40;59.10;;;;;;4855403;29;20470;-78
2021/04/19 11:36:16;;;;;;;21.13;14.30;;;14.30;59.40;;;;;;4875874;29;20431;-79
2021/04/19 11:38:42;;;;;;;28.43;17.37;;;14.30;58.90;;;;;;4860512;29;20433;-80
2021/04/19 11:41:14;;;;;;;20.70;15.13;;;14.20;57.80;;;;;;4859471;29;20484;-79
2021/04/19 11:43:52;;;;;;;25.30;15.20;;;14.10;58.50;;;;;;4862495;29;20429;-79
2021/04/19 11:46:21;;;;;;;25.97;17.03;;;14.00;58.40;;;;;;4862284;29;20425;-78
2021/04/19 11:48:48;;;;;;;30.80;21.07;;;14.10;58.90;;;;;;4860951;29;20417;-77
2021/04/19 11:51:22;;;;;;;29.47;19.20;;;14.20;60.40;;;;;;4859514;29;20473;-79
2021/04/19 11:54:06;;;;;;;20.73;13.40;;;14.30;58.90;;;;;;5341439;23;21035;-78
2021/04/19 11:56:32;;;;;;;17.77;11.90;;;14.30;58.20;;;;;;4928256;29;20447;-78
2021/04/19 11:59:24;;;;;;;18.83;12.43;;;14.40;56.40;;;;;;4935420;29;20409;-78
2021/04/19 12:02:33;;;;;;;;;;;;;;;;;;;;;
2021/04/19 12:05:40;;;;;;;24.50;17.87;;;14.60;55.90;;;;;;4961533;28;20432;-78
2021/04/19 12:12:33;;;;;;;;;;;;;;;;;;;;;
2021/04/19 12:20:03;;;;;;;;;;;;;;;;;;;;;
2021/04/19 12:34:48;;;;;;;17.30;14.07;;;15.30;53.60;;;;;;4881064;29;20541;-78
2021/04/19 12:38:28;;;;;;;18.53;14.13;;;15.40;52.70;;;;;;4902550;29;20490;-79
2021/04/19 12:42:25;;;;;;;;;;;;;;;;;;;;;
2021/04/19 12:45:26;;;;;;;17.73;12.63;;;16.10;51.40;;;;;;4860457;29;20444;-77
2021/04/19 12:48:26;;;;;;;16.80;11.83;;;16.60;50.50;;;;;;4861666;29;20425;-76
2021/04/19 12:51:01;;;;;;;16.47;13.17;;;16.80;49.50;;;;;;4917756;29;20462;-77
2021/04/19 12:53:33;;;;;;;18.70;11.77;;;16.80;48.50;;;;;;4918738;29;20945;-76
2021/04/19 12:56:17;;;;;;;17.50;12.70;;;16.90;47.70;;;;;;4901656;29;20504;-76
2021/04/19 13:01:59;;;;;;;18.63;12.73;;;16.50;48.10;;;;;;4867516;29;20447;-76
2021/04/19 13:04:25;;;;;;;18.63;13.03;;;16.10;49.10;;;;;;4896558;29;20458;-77
2021/04/19 13:06:54;;;;;;;23.03;14.30;;;15.90;50.40;;;;;;4927306;29;20476;-77
2021/04/19 13:12:54;;;;;;;21.07;15.87;;;15.70;50.50;;;;;;4942981;29;21034;-77
2021/04/19 13:16:11;;;;;;;23.03;14.63;;;15.50;51.70;;;;;;4944100;28;20453;-77
2021/04/19 13:18:51;;;;;;;20.33;14.67;;;15.40;52.40;;;;;;4902368;29;20454;-77
2021/04/19 13:21:27;;;;;;;18.13;13.70;;;15.20;52.10;;;;;;4910298;29;20426;-77
2021/04/19 13:23:57;;;;;;;20.63;13.33;;;15.10;51.80;;;;;;4929278;29;20523;-77
2021/04/19 13:26:31;;;;;;;19.13;13.13;;;15.00;51.80;;;;;;4909313;29;20425;-79
2021/04/19 13:33:47;;;;;;;;;;;;;;;;;;;;;
2021/04/19 13:39:43;;;;;;;22.13;14.40;;;14.60;53.30;;;;;;4889558;29;20455;-79
2021/04/19 13:42:18;;;;;;;22.00;14.40;;;14.60;53.50;;;;;;4865115;29;21271;-77
2021/04/19 13:47:13;;;;;;;29.37;19.10;;;14.40;53.80;;;;;;4903921;29;20470;-77
2021/04/19 13:49:59;;;;;;;17.23;14.57;;;14.40;53.80;;;;;;4906944;29;20418;-77
2021/04/19 13:56:40;;;;;;;18.80;13.57;;;14.20;53.80;;;;;;4899873;29;20454;-76
2021/04/19 14:02:19;;;;;;;44.83;29.43;;;14.00;54.30;;;;;;4903700;29;20442;-79
2021/04/19 14:05:23;;;;;;;24.37;14.13;;;14.00;54.40;;;;;;4876449;29;20463;-77
2021/04/19 14:08:40;;;;;;;21.53;15.93;;;14.00;54.50;;;;;;4913794;29;20502;-79
2021/04/19 14:11:35;;;;;;;26.20;17.00;;;13.90;54.30;;;;;;4854710;29;20489;-77
2021/04/19 14:19:10;;;;;;;19.07;13.40;;;13.90;54.50;;;;;;4886120;29;20531;-79
2021/04/19 14:22:48;;;;;;;;;;;;;;;;;;;;;
2021/04/19 14:26:23;;;;;;;;;;;;;;;;;;;;;
2021/04/19 14:29:35;;;;;;;17.70;13.17;;;14.00;54.10;;;;;;4908484;29;20421;-80